Terminal Aerodrome Forecast
Issued by NWS

Home | Current Version | Previous Version | Graphics & Text | Print | Product List | Glossary On
Versions: 1 2 3 4 5 6 7 8 9 10 11 12 13 14 15
795
FTUS43 KBIS 181120
TAFJMS
TAF
KJMS 181120Z 1812/1912 18004KT P6SM VCTS OVC070CB
      TEMPO 1812/1813 5SM -TSRA BKN050CB
     FM181500 01007KT P6SM FEW020 SCT130
     FM190200 00000KT P6SM SKC
     FM191100 21004KT P6SM SKC=

USA.gov is the U.S. government's official web portal to all federal, state and local government web resources and services.